createdAt,value
2023-05-09T00:00:23.455Z,15.05
2023-05-09T00:05:26.284Z,14.94
2023-05-09T00:10:30.933Z,14.86
2023-05-09T00:15:33.591Z,14.85
2023-05-09T00:20:36.184Z,14.87
2023-05-09T00:25:40.113Z,14.81
2023-05-09T00:30:42.741Z,14.78
2023-05-09T00:35:45.301Z,14.77
2023-05-09T00:40:49.329Z,14.78
2023-05-09T00:45:52.157Z,14.71
2023-05-09T00:50:55.106Z,14.68
2023-05-09T00:56:01.014Z,14.62
2023-05-09T01:01:03.892Z,14.58
2023-05-09T01:06:14.206Z,14.55
2023-05-09T01:11:25.539Z,14.47
2023-05-09T01:16:36.288Z,14.39
2023-05-09T01:21:44.286Z,14.31
2023-05-09T01:27:07.093Z,14.26
2023-05-09T01:32:15.535Z,14.25
2023-05-09T01:37:23.267Z,14.29
2023-05-09T01:42:28.227Z,14.31
2023-05-09T01:47:32.378Z,14.29
2023-05-09T01:52:37.292Z,14.25
2023-05-09T01:57:41.163Z,14.30
2023-05-09T02:02:45.993Z,14.27
2023-05-09T02:07:49.493Z,14.29
2023-05-09T02:12:52.266Z,14.35
2023-05-09T02:17:56.693Z,14.42
2023-05-09T02:22:59.393Z,14.51
2023-05-09T02:28:03.527Z,14.60
2023-05-09T02:33:11.753Z,14.63
2023-05-09T02:38:15.442Z,14.59
2023-05-09T02:43:18.033Z,14.62
2023-05-09T02:48:21.960Z,14.69
2023-05-09T02:53:24.530Z,14.73
2023-05-09T02:58:27.185Z,14.78
2023-05-09T03:03:34.717Z,14.73
2023-05-09T03:08:37.447Z,14.78
2023-05-09T03:13:40.052Z,14.78
2023-05-09T03:18:44.034Z,14.79
2023-05-09T03:23:46.596Z,14.76
2023-05-09T03:28:49.676Z,14.77
2023-05-09T03:33:53.785Z,14.80
2023-05-09T03:38:56.383Z,14.82
2023-05-09T03:43:58.943Z,14.84
2023-05-09T03:49:04.331Z,14.82
2023-05-09T03:54:07.154Z,14.79
2023-05-09T03:59:09.716Z,14.81
2023-05-09T04:04:13.772Z,14.80
2023-05-09T04:09:16.502Z,14.79
2023-05-09T04:14:19.160Z,14.78
2023-05-09T04:19:23.157Z,14.80
2023-05-09T04:24:25.759Z,14.80
2023-05-09T04:29:28.425Z,14.77
2023-05-09T04:34:33.396Z,14.83
2023-05-09T04:39:35.984Z,14.80
2023-05-09T04:44:38.601Z,14.82
2023-05-09T04:49:42.644Z,14.85
2023-05-09T04:54:45.297Z,14.90
2023-05-09T04:59:47.872Z,14.94
2023-05-09T05:04:52.871Z,15.01
2023-05-09T05:09:56.955Z,15.11
2023-05-09T05:14:59.477Z,15.24
2023-05-09T05:20:06.371Z,15.31
2023-05-09T05:25:09.837Z,15.35
2023-05-09T05:30:15.428Z,15.35
2023-05-09T05:35:22.508Z,15.38
2023-05-09T05:40:25.195Z,15.47
2023-05-09T05:45:29.586Z,15.52
2023-05-09T05:50:33.966Z,15.49
2023-05-09T05:55:36.560Z,15.45
2023-05-09T06:00:39.181Z,15.47
2023-05-09T06:05:44.970Z,15.53
2023-05-09T06:10:47.600Z,15.56
2023-05-09T06:15:50.473Z,15.64
2023-05-09T06:20:54.415Z,15.80
2023-05-09T06:25:56.956Z,15.98
2023-05-09T06:30:59.618Z,15.91
2023-05-09T06:36:03.568Z,15.85
2023-05-09T06:41:06.428Z,15.85
2023-05-09T06:46:10.094Z,15.91
2023-05-09T06:51:14.118Z,15.97
2023-05-09T06:56:20.039Z,16.12
2023-05-09T07:01:22.967Z,16.40
2023-05-09T07:06:27.003Z,16.32
2023-05-09T07:11:29.679Z,16.28
2023-05-09T07:16:33.252Z,16.34
2023-05-09T07:21:38.580Z,16.35
2023-05-09T07:26:41.256Z,16.17
2023-05-09T07:31:43.907Z,16.25
2023-05-09T07:36:47.862Z,16.82
2023-05-09T07:41:50.412Z,18.10
2023-05-09T07:46:55.404Z,18.39
2023-05-09T07:51:59.452Z,18.76
2023-05-09T07:57:02.069Z,18.91
2023-05-09T08:02:04.745Z,18.97
2023-05-09T08:07:09.164Z,19.45
2023-05-09T08:12:11.781Z,19.50
2023-05-09T08:17:16.206Z,19.35
2023-05-09T08:22:21.070Z,18.60
2023-05-09T08:27:24.262Z,18.35
2023-05-09T08:32:26.894Z,18.72
2023-05-09T08:37:30.794Z,20.02
2023-05-09T08:42:33.874Z,20.16
2023-05-09T08:47:36.772Z,20.56
2023-05-09T08:52:40.896Z,21.10
2023-05-09T08:57:43.791Z,20.65
2023-05-09T09:02:46.822Z,20.09
2023-05-09T09:07:51.614Z,19.72
2023-05-09T09:12:56.933Z,20.45
2023-05-09T09:18:07.136Z,21.28
2023-05-09T09:23:11.623Z,21.37
2023-05-09T09:28:14.307Z,21.84
2023-05-09T09:33:22.025Z,21.82
2023-05-09T09:38:26.789Z,21.96
2023-05-09T09:43:29.876Z,22.23
2023-05-09T09:48:34.605Z,22.06
2023-05-09T09:53:42.273Z,22.49
2023-05-09T09:58:44.930Z,22.99
2023-05-09T10:03:47.965Z,22.54
2023-05-09T10:08:52.176Z,21.85
2023-05-09T10:13:54.872Z,21.86
2023-05-09T10:18:57.667Z,21.95
2023-05-09T10:24:02.388Z,22.04
2023-05-09T10:29:11.593Z,22.60
2023-05-09T10:34:14.849Z,21.93
2023-05-09T10:39:19.897Z,23.35
2023-05-09T10:44:24.240Z,23.99
2023-05-09T10:49:27.012Z,23.77
2023-05-09T10:54:33.509Z,23.55
2023-05-09T10:59:39.035Z,22.51
2023-05-09T11:04:41.991Z,22.10
2023-05-09T11:09:46.001Z,21.51
2023-05-09T11:14:50.121Z,21.05
2023-05-09T11:20:01.111Z,20.62
2023-05-09T11:25:07.315Z,20.47
2023-05-09T11:30:12.025Z,20.60
2023-05-09T11:35:17.070Z,20.07
2023-05-09T11:40:22.696Z,19.96
2023-05-09T11:45:26.910Z,19.88
2023-05-09T11:50:29.600Z,20.13
2023-05-09T11:55:33.624Z,20.29
2023-05-09T12:00:37.225Z,20.65
2023-05-09T12:05:40.154Z,20.74
2023-05-09T12:10:44.095Z,20.15
2023-05-09T12:15:46.698Z,19.88
2023-05-09T12:20:50.231Z,19.51
2023-05-09T12:25:56.528Z,19.65
2023-05-09T12:30:59.874Z,20.22
2023-05-09T12:36:04.770Z,19.67
2023-05-09T12:41:22.537Z,19.68
2023-05-09T12:46:32.905Z,19.96
2023-05-09T12:51:35.805Z,20.08
2023-05-09T12:56:40.351Z,20.59
2023-05-09T13:01:43.108Z,20.73
2023-05-09T13:06:49.321Z,20.70
2023-05-09T13:11:54.541Z,20.07
2023-05-09T13:16:57.229Z,19.53
2023-05-09T13:21:59.900Z,19.55
2023-05-09T13:27:04.734Z,19.41
2023-05-09T13:32:07.457Z,19.27
2023-05-09T13:37:10.030Z,19.02
2023-05-09T13:42:14.017Z,19.02
2023-05-09T13:47:16.610Z,18.74
2023-05-09T13:52:19.416Z,18.55
2023-05-09T13:57:23.276Z,18.49
2023-05-09T14:02:25.968Z,18.29
2023-05-09T14:07:28.520Z,18.14
2023-05-09T14:12:32.722Z,17.79
2023-05-09T14:17:35.478Z,17.87
2023-05-09T14:22:38.170Z,17.62
2023-05-09T14:27:42.169Z,17.24
2023-05-09T14:32:44.901Z,16.77
2023-05-09T14:37:47.755Z,16.45
2023-05-09T14:42:51.822Z,16.33
2023-05-09T14:47:54.418Z,16.37
2023-05-09T14:52:57.090Z,16.20
2023-05-09T14:58:01.123Z,15.87
2023-05-09T15:03:04.332Z,15.71
2023-05-09T15:08:07.831Z,15.62
2023-05-09T15:13:12.307Z,15.66
2023-05-09T15:18:16.624Z,15.91
2023-05-09T15:23:19.380Z,16.12
2023-05-09T15:28:23.783Z,15.99
2023-05-09T15:33:26.733Z,15.86
2023-05-09T15:38:29.167Z,15.78
2023-05-09T15:43:33.152Z,15.71
2023-05-09T15:48:35.723Z,15.52
2023-05-09T15:53:38.350Z,15.65
2023-05-09T15:58:42.290Z,15.58
2023-05-09T16:03:45.066Z,15.75
2023-05-09T16:08:47.784Z,15.45
2023-05-09T16:13:51.811Z,15.52
2023-05-09T16:18:54.446Z,15.21
2023-05-09T16:23:58.374Z,14.93
2023-05-09T16:29:03.103Z,14.89
2023-05-09T16:34:05.723Z,14.97
2023-05-09T16:39:08.674Z,14.85
2023-05-09T16:44:12.922Z,14.84
2023-05-09T16:49:16.013Z,14.73
2023-05-09T16:54:18.523Z,14.63
2023-05-09T16:59:22.508Z,14.66
2023-05-09T17:04:25.680Z,14.59
2023-05-09T17:09:30.363Z,14.56
2023-05-09T17:14:34.320Z,14.48
2023-05-09T17:19:36.906Z,14.52
2023-05-09T17:24:39.480Z,14.37
2023-05-09T17:29:43.403Z,14.44
2023-05-09T17:34:45.971Z,14.39
2023-05-09T17:39:48.567Z,14.37
2023-05-09T17:44:53.128Z,14.38
2023-05-09T17:49:55.711Z,14.32
2023-05-09T17:54:58.405Z,14.25
2023-05-09T18:00:02.365Z,14.25
2023-05-09T18:05:05.762Z,14.25
2023-05-09T18:10:10.056Z,14.23
2023-05-09T18:15:14.334Z,14.15
2023-05-09T18:20:17.253Z,14.00
2023-05-09T18:25:20.476Z,14.01
2023-05-09T18:30:24.359Z,13.96
2023-05-09T18:35:27.000Z,13.97
2023-05-09T18:40:29.593Z,13.97
2023-05-09T18:45:33.765Z,13.95
2023-05-09T18:50:37.040Z,13.91
2023-05-09T18:55:39.906Z,13.83
2023-05-09T19:00:44.559Z,13.79
2023-05-09T19:05:47.437Z,13.76
2023-05-09T19:10:49.978Z,13.77
2023-05-09T19:15:53.887Z,13.80
2023-05-09T19:20:58.252Z,13.73
2023-05-09T19:26:00.882Z,13.70
2023-05-09T19:31:05.046Z,13.66
2023-05-09T19:36:08.090Z,13.63
2023-05-09T19:41:10.921Z,13.60
2023-05-09T19:46:14.999Z,13.59
2023-05-09T19:51:17.687Z,13.56
2023-05-09T19:56:20.523Z,13.58
2023-05-09T20:01:27.777Z,13.59
2023-05-09T20:06:30.689Z,13.63
2023-05-09T20:11:33.908Z,13.69
2023-05-09T20:16:37.679Z,13.73
2023-05-09T20:21:42.088Z,13.67
2023-05-09T20:26:44.838Z,13.59
2023-05-09T20:31:48.012Z,13.62
2023-05-09T20:36:53.796Z,13.61
2023-05-09T20:41:58.686Z,13.58
2023-05-09T20:47:01.345Z,13.65
2023-05-09T20:52:06.472Z,13.67
2023-05-09T20:57:09.267Z,13.66
2023-05-09T21:02:30.095Z,13.65
2023-05-09T21:07:34.330Z,13.65
2023-05-09T21:12:37.159Z,13.61
2023-05-09T21:17:40.873Z,13.63
2023-05-09T21:22:44.919Z,13.64
2023-05-09T21:27:47.642Z,13.63
2023-05-09T21:32:51.900Z,13.60
2023-05-09T21:37:56.068Z,13.53
2023-05-09T21:42:58.743Z,13.44
2023-05-09T21:48:01.676Z,13.39
2023-05-09T21:53:05.938Z,13.34
2023-05-09T21:58:08.483Z,13.31
2023-05-09T22:03:11.290Z,13.28
2023-05-09T22:08:15.190Z,13.23
2023-05-09T22:13:17.761Z,13.12
2023-05-09T22:18:20.248Z,13.07
2023-05-09T22:23:25.305Z,13.07
2023-05-09T22:28:28.033Z,13.12
2023-05-09T22:33:30.628Z,13.14
2023-05-09T22:38:34.529Z,13.12
2023-05-09T22:43:39.575Z,13.14
2023-05-09T22:48:42.630Z,13.14
2023-05-09T22:54:07.267Z,13.18
2023-05-09T22:59:10.830Z,13.03
2023-05-09T23:04:13.752Z,12.71
2023-05-09T23:09:18.668Z,12.55
2023-05-09T23:14:21.616Z,12.52
2023-05-09T23:19:24.281Z,12.43
2023-05-09T23:24:28.223Z,12.39
2023-05-09T23:29:30.995Z,12.34
2023-05-09T23:34:33.830Z,12.26
2023-05-09T23:39:38.858Z,12.22
2023-05-09T23:44:41.504Z,12.20
2023-05-09T23:49:44.340Z,12.18
2023-05-09T23:54:48.311Z,12.20
2023-05-09T23:59:51.896Z,12.17
